Latest Weather Observations for Swan Hill

IDV60801

Issued at 9:02 pm EDT Sunday 25 January 2015 (issued every 30 minutes, with the page automatically refreshed every 10 minutes)

About weather observations | Map of weather stations | Latest weather observations for VIC | Other Formats
Station Details ID: 077094 Name: SWAN HILL AERODROME Lat: -35.38 Lon: 143.54 Height: 71.0 m
Data from the previous 72 hours. | See also: Recent months at Swan Hill
Date/Time
EDT
Temp
°C
App
Temp
°C
Dew
Point
Rel
Hum
%
Delta-T
°C
Wind Press
QNH
hPa
Press
MSL
hPa
Rain
since 9 am
mm
Dir
 
Spd
km/h
Gust
km/h
Spd
kts
Gust
kts
25/09:00pm 20.6 14.9 2.9 31 8.4 SSW 22 35 12 19 1011.2 - 0.0
25/08:30pm 21.8 15.3 2.5 28 9.1 SW 26 35 14 19 1010.9 - 0.0
25/08:00pm 22.5 16.6 1.5 25 9.8 SSW 22 37 12 20 1010.4 - 0.0
25/07:30pm 23.1 16.7 0.9 23 10.3 SW 24 33 13 18 1010.0 - 0.0
25/07:00pm 24.3 16.3 0.6 21 11.0 SW 32 46 17 25 1009.7 - 0.0
25/06:30pm 24.7 17.3 1.6 22 11.0 SW 30 41 16 22 1009.6 - 0.0
25/06:00pm 24.6 16.2 1.5 22 10.9 SW 35 54 19 29 1009.2 1008.9 0.0
25/05:31pm 25.5 17.0 0.9 20 11.6 WSW 35 54 19 29 1009.0 - 0.0
25/05:30pm 25.6 17.4 0.3 19 11.8 WSW 33 46 18 25 1008.9 - 0.0
25/05:02pm 25.3 18.1 0.7 20 11.5 SW 28 46 15 25 1009.1 - 0.0
25/05:00pm 24.5 16.6 0.8 21 11.1 SW 32 46 17 25 1009.2 - 0.0
25/04:30pm 24.7 16.8 0.9 21 11.1 SW 32 50 17 27 1009.1 - 0.0
25/04:00pm 24.8 16.7 1.0 21 11.2 SW 33 54 18 29 1009.3 - 0.0
25/03:35pm 24.8 17.4 1.7 22 11.0 SW 30 48 16 26 1009.3 - 0.0
25/03:30pm 24.5 17.0 1.4 22 10.9 SW 30 46 16 25 1009.2 - 0.0
25/03:00pm 24.1 17.9 2.3 24 10.4 SW 24 52 13 28 1009.6 1009.2 0.0
25/02:40pm 25.0 17.2 3.0 24 10.7 SW 33 52 18 28 1009.6 - 0.0
25/02:30pm 24.3 16.0 1.9 23 10.7 SW 35 46 19 25 1009.8 - 0.0
25/02:05pm 23.9 16.5 2.1 24 10.4 SW 30 48 16 26 1010.0 - 0.0
25/02:00pm 23.2 15.3 2.1 25 10.0 SW 33 46 18 25 1009.9 - 0.0
25/01:34pm 23.3 16.0 2.7 26 9.9 SW 30 54 16 29 1010.0 - 0.0
25/01:30pm 22.5 15.5 2.1 26 9.6 SW 28 44 15 24 1010.0 - 0.0
25/01:00pm 22.3 14.9 1.9 26 9.6 SW 30 44 16 24 1009.9 - 0.0
25/12:30pm 21.8 15.3 2.5 28 9.1 SW 26 44 14 24 1010.1 - 0.0
25/12:00pm 21.7 14.7 3.9 31 8.6 SW 30 46 16 25 1010.0 1009.8 0.0
25/11:31am 20.4 13.7 3.6 33 8.0 SW 28 46 15 25 1010.1 - 0.0
25/11:30am 20.3 14.1 4.4 35 7.7 SW 26 46 14 25 1010.1 - 0.0
25/11:11am 20.5 14.2 5.7 38 7.4 SW 28 46 15 25 1010.1 - 0.0
25/11:00am 19.0 13.5 5.8 42 6.5 SSW 24 35 13 19 1010.2 - 0.0
25/10:30am 18.2 12.8 6.4 46 5.9 SW 24 37 13 20 1010.0 - 0.0
25/10:00am 17.8 11.4 7.0 49 5.4 SW 30 41 16 22 1010.1 - 0.0
25/09:30am 17.5 11.2 7.5 52 5.1 SW 30 44 16 24 1009.8 - 0.0
25/09:00am 17.5 11.9 8.6 56 4.6 SW 28 41 15 22 1009.6 1009.3 0.0
25/08:30am 16.4 10.9 9.1 62 3.8 SW 28 39 15 21 1009.2 - 0.0
25/08:00am 16.1 11.6 10.0 67 3.2 SW 24 33 13 18 1008.8 - 0.0
25/07:30am 15.6 11.5 11.4 76 2.3 SW 24 32 13 17 1008.4 - 0.0
25/07:00am 15.2 11.1 11.4 78 2.0 WSW 24 32 13 17 1008.0 - 0.0
25/06:30am 15.5 11.3 11.1 75 2.4 WSW 24 32 13 17 1007.4 - 0.0
25/06:00am 16.1 11.8 10.6 70 2.9 WSW 24 30 13 16 1006.8 1006.5 0.0
25/05:30am 16.8 12.7 11.3 70 3.0 WSW 24 33 13 18 1006.3 - 0.0
25/05:00am 17.3 12.7 11.1 67 3.4 WSW 26 35 14 19 1006.0 - 0.0
25/04:30am 17.6 13.3 10.9 65 3.6 WSW 24 32 13 17 1005.9 - 0.0
25/04:00am 17.8 13.7 10.2 61 4.1 WSW 22 30 12 16 1006.0 - 0.0
25/03:30am 17.8 14.0 8.9 56 4.6 W 19 24 10 13 1005.8 - 0.0
25/03:00am 18.5 14.6 8.5 52 5.2 WSW 19 26 10 14 1005.9 1005.6 0.0
25/02:30am 18.9 14.9 8.3 50 5.5 WSW 19 24 10 13 1005.9 - 0.0
25/02:00am 19.2 15.9 7.9 48 5.8 WSW 15 19 8 10 1005.8 - 0.0
25/01:30am 19.8 16.1 7.9 46 6.1 SW 17 24 9 13 1005.9 - 0.0
25/01:00am 20.3 16.2 7.7 44 6.5 SW 19 28 10 15 1005.9 - 0.0
25/12:30am 20.9 16.1 7.2 41 7.0 SW 22 28 12 15 1005.8 - 0.0
25/12:00am 21.5 16.9 6.6 38 7.6 SW 20 28 11 15 1005.7 1005.4 0.0
 
Date/Time
EDT
Temp
°C
App
Temp
°C
Dew
Point
Rel
Hum
%
Delta-T
°C
Wind Press
QNH
hPa
Press
MSL
hPa
Rain
since 9 am
mm
Dir
 
Spd
km/h
Gust
km/h
Spd
kts
Gust
kts
24/11:30pm 22.2 16.8 6.4 36 8.1 SW 24 33 13 18 1005.5 - 0.0
24/11:00pm 23.0 16.9 6.7 35 8.4 SW 28 39 15 21 1005.4 - 0.0
24/10:30pm 23.7 18.0 6.9 34 8.7 SW 26 35 14 19 1005.1 - 0.0
24/10:20pm 23.9 17.5 7.1 34 8.8 SW 30 48 16 26 1005.0 - 0.0
24/10:00pm 24.8 18.1 7.4 33 9.2 SW 32 44 17 24 1004.6 - 0.0
24/09:40pm 25.6 19.7 7.7 32 9.5 SW 28 43 15 23 1003.9 - 0.0
24/09:30pm 25.5 21.5 5.1 27 10.4 WSW 15 19 8 10 1003.7 - 0.0
24/09:00pm 26.8 23.0 4.0 23 11.5 WSW 13 17 7 9 1003.0 1002.9 0.0
24/08:30pm 28.9 23.3 3.7 20 12.8 WSW 22 28 12 15 1002.7 - 0.0
24/08:00pm 30.1 23.6 2.4 17 13.8 W 26 33 14 18 1002.4 - 0.0
24/07:30pm 31.3 24.1 0.6 14 15.0 WSW 28 37 15 20 1002.1 - 0.0
24/07:00pm 31.6 24.1 0.9 14 15.1 W 30 43 16 23 1001.7 - 0.0
24/06:30pm 32.1 24.0 1.3 14 15.3 W 33 44 18 24 1001.7 - 0.0
24/06:00pm 32.1 24.0 1.3 14 15.4 W 33 46 18 25 1001.8 1001.5 0.0
24/05:30pm 32.5 25.0 3.5 16 15.0 W 32 46 17 25 1001.8 - 0.0
24/05:00pm 32.5 25.7 5.1 18 14.5 W 30 48 16 26 1002.0 - 0.0
24/04:57pm 32.6 25.8 5.2 18 14.6 W 30 48 16 26 1002.0 - 0.0
24/04:30pm 32.9 26.3 7.7 21 14.0 W 32 46 17 25 1002.5 - 0.0
24/04:00pm 32.4 28.1 9.2 24 13.1 W 22 43 12 23 1002.9 - 0.0
24/03:30pm 31.3 26.5 8.9 25 12.6 W 24 44 13 24 1003.3 - 0.0
24/03:03pm 31.7 26.2 9.3 25 12.7 W 28 52 15 28 1003.7 - 0.0
24/03:00pm 31.7 26.2 9.3 25 12.7 W 28 52 15 28 1003.7 1003.5 0.0
24/02:30pm 31.2 25.8 8.2 24 12.7 W 26 43 14 23 1004.0 - 0.0
24/02:00pm 30.8 27.0 9.1 26 12.2 W 19 37 10 20 1004.6 - 0.0
24/01:30pm 29.6 23.8 8.1 26 11.8 WNW 28 41 15 22 1004.7 - 0.0
24/01:00pm 28.6 24.0 8.3 28 11.1 W 22 32 12 17 1005.1 - 0.0
24/12:30pm 28.5 25.0 8.7 29 10.9 SW 17 30 9 16 1005.4 - 0.0
24/12:00pm 26.5 22.5 8.9 33 9.7 WSW 20 35 11 19 1005.7 1005.3 0.0
24/11:30am 26.5 22.2 9.4 34 9.4 W 22 28 12 15 1006.1 - 0.0
24/11:00am 25.0 20.8 9.7 38 8.4 WSW 22 35 12 19 1006.2 - 0.0
24/10:30am 23.8 20.6 11.8 47 6.8 WSW 20 30 11 16 1006.2 - 0.0
24/10:00am 22.2 19.5 11.6 51 5.9 WSW 17 28 9 15 1006.6 - 0.0
24/09:30am 21.2 18.7 11.2 53 5.5 SW 15 20 8 11 1006.7 - 0.0
24/09:00am 19.6 17.1 10.9 57 4.8 SW 15 19 8 10 1006.7 1006.3 0.0
24/08:30am 18.7 16.0 10.5 59 4.4 WSW 15 19 8 10 1006.4 - 0.0
24/08:00am 18.4 17.2 10.3 59 4.3 SW 7 13 4 7 1006.3 - 0.0
24/07:30am 17.6 15.9 10.0 61 4.0 SW 9 11 5 6 1006.0 - 0.0
24/07:00am 17.2 16.5 10.1 63 3.8 SW 4 11 2 6 1005.9 - 0.0
24/06:30am 17.2 15.5 9.9 62 3.9 SW 9 13 5 7 1005.9 - 0.0
24/06:00am 17.6 16.1 10.7 64 3.7 SSW 9 13 5 7 1006.0 1005.6 0.0
24/05:30am 17.8 17.0 11.8 68 3.3 S 7 9 4 5 1005.4 - 0.0
24/05:00am 18.6 17.5 11.9 65 3.7 SSE 9 13 5 7 1005.3 - 0.0
24/04:30am 18.5 17.0 11.8 65 3.7 S 11 13 6 7 1005.3 - 0.0
24/04:00am 18.6 16.8 10.9 61 4.2 SSW 11 15 6 8 1005.2 - 0.0
24/03:30am 19.0 17.6 10.8 59 4.5 SSW 9 13 5 7 1005.1 - 0.0
24/03:00am 19.3 17.1 8.0 48 5.9 SSW 9 13 5 7 1004.9 1004.6 0.0
24/02:30am 20.3 18.1 7.7 44 6.5 SW 9 13 5 7 1005.0 - 0.0
24/02:00am 21.2 18.5 7.4 41 7.1 SW 11 15 6 8 1005.2 - 0.0
24/01:30am 21.7 19.0 7.5 40 7.4 WSW 11 15 6 8 1005.1 - 0.0
24/01:00am 22.2 19.1 7.2 38 7.8 SW 13 15 7 8 1005.0 - 0.0
24/12:30am 22.8 20.1 7.4 37 8.0 SW 11 15 6 8 1005.2 - 0.0
24/12:00am 23.5 20.9 7.6 36 8.4 SW 11 13 6 7 1005.4 1005.1 0.0
 
Date/Time
EDT
Temp
°C
App
Temp
°C
Dew
Point
Rel
Hum
%
Delta-T
°C
Wind Press
QNH
hPa
Press
MSL
hPa
Rain
since 9 am
mm
Dir
 
Spd
km/h
Gust
km/h
Spd
kts
Gust
kts
23/11:30pm 24.6 22.7 7.7 34 9.0 S 7 13 4 7 1005.4 - 0.0
23/11:00pm 25.6 23.1 8.1 33 9.4 SW 11 13 6 7 1005.5 - 0.0
23/10:30pm 25.9 23.9 8.8 34 9.3 SSW 9 11 5 6 1005.6 - 0.0
23/10:00pm 27.1 24.9 9.5 33 9.8 SSW 11 17 6 9 1005.2 - 0.0
23/09:30pm 28.2 25.1 10.4 33 10.1 SW 17 22 9 12 1004.8 - 0.0
23/09:00pm 28.9 25.4 11.0 33 10.3 SW 20 30 11 16 1004.5 1004.3 0.0
23/08:30pm 30.1 26.0 11.6 32 10.8 SW 24 33 13 18 1004.0 - 0.0
23/08:00pm 31.3 27.3 11.7 30 11.5 SW 24 35 13 19 1003.7 - 0.0
23/07:30pm 32.3 27.6 12.0 29 12.0 SW 28 39 15 21 1003.5 - 0.0
23/07:00pm 33.0 28.0 12.1 28 12.4 WSW 30 39 16 21 1003.2 - 0.0
23/06:30pm 33.8 28.8 12.2 27 12.9 WSW 30 43 16 23 1003.0 - 0.0
23/06:01pm 34.2 29.5 12.0 26 13.2 WSW 28 46 15 25 1003.1 - 0.0
23/06:00pm 34.1 29.4 11.9 26 13.2 WSW 28 46 15 25 1003.1 1002.9 0.0
23/05:55pm 34.5 29.9 12.2 26 13.3 WSW 28 46 15 25 1003.1 - 0.0
23/05:30pm 34.2 29.3 11.4 25 13.5 W 28 41 15 22 1003.3 - 0.0
23/05:10pm 34.6 29.8 11.7 25 13.6 WSW 28 46 15 25 1003.3 - 0.0
23/05:00pm 34.8 29.9 11.2 24 13.9 WSW 28 43 15 23 1003.3 - 0.0
23/04:30pm 34.3 29.0 11.4 25 13.5 SW 30 48 16 26 1003.8 - 0.0
23/04:29pm 34.5 29.1 11.0 24 13.8 WSW 30 48 16 26 1003.7 - 0.0
23/04:00pm 34.8 30.3 9.9 22 14.4 WSW 24 43 13 23 1004.2 - 0.0
23/03:30pm 34.0 30.1 9.3 22 14.1 SSW 20 41 11 22 1004.2 - 0.0
23/03:03pm 35.1 29.7 9.5 21 14.7 WSW 28 46 15 25 1004.3 - 0.0
23/03:00pm 34.4 29.2 8.9 21 14.5 WSW 26 46 14 25 1004.3 1003.9 0.0
23/02:49pm 34.4 28.5 8.9 21 14.5 WSW 30 50 16 27 1004.3 - 0.0
23/02:30pm 35.0 30.0 9.4 21 14.7 WSW 26 39 14 21 1004.4 - 0.0
23/02:00pm 35.7 30.2 9.3 20 15.2 W 28 41 15 22 1004.4 - 0.0
23/01:40pm 35.7 29.5 9.3 20 15.2 WSW 32 52 17 28 1004.4 - 0.0
23/01:30pm 35.0 30.5 10.1 22 14.5 W 24 39 13 21 1004.6 - 0.0
23/01:00pm 34.4 29.6 10.3 23 14.0 W 26 35 14 19 1005.0 - 0.0
23/12:30pm - - - - - W 28 41 15 22 - - 0.0
23/12:00pm - - - - - - - - - - - - -
23/11:30am - - - - - NW 11 24 6 13 1005.2 - 0.0
23/11:00am 31.6 - - - - W 13 19 7 10 1005.4 - 0.0
23/10:30am 30.7 - - - - SW 11 17 6 9 1005.8 - 0.0
23/10:00am 29.5 - - - - WSW 15 20 8 11 1006.1 - 0.0
23/09:30am 28.7 - - - - SW 17 24 9 13 1006.2 - 0.0
23/09:00am 27.7 - - - - SW 15 20 8 11 1006.3 1006.0 0.0
23/08:30am 26.3 - - - - SW 13 17 7 9 1006.0 - 0.0
23/08:00am 25.3 - - - - SW 15 19 8 10 1005.7 - 0.0
23/07:30am 24.0 - - - - WSW 11 15 6 8 1005.3 - 0.0
23/07:00am 22.6 - - - - WSW 9 13 5 7 1005.1 - 0.0
23/06:30am 22.1 - - - - WSW 6 11 3 6 1004.7 - 0.0
23/06:00am 23.0 - - - - WSW 9 11 5 6 1004.5 1004.2 0.0
23/05:30am 22.2 - - - - CALM 0 0 0 0 1004.3 - 0.0
23/05:00am 22.8 - - - - SW 4 6 2 3 1003.9 - 0.0
23/04:30am 23.6 - - - - CALM 0 0 0 0 1003.9 - 0.0
23/04:00am 24.3 - - - - WNW 6 7 3 4 1004.0 - 0.0
23/03:30am 24.3 - - - - WNW 7 9 4 5 1004.3 - 0.0
23/03:00am 24.6 - - - - WNW 6 7 3 4 1004.6 1004.2 0.0
23/02:30am 25.1 - - - - WNW 6 9 3 5 1004.7 - 0.0
23/02:00am 26.7 - - - - W 7 9 4 5 1005.0 - 0.0
23/01:30am 28.4 - - - - W 19 26 10 14 1005.2 - 0.0
23/01:00am 28.1 - - - - N 17 20 9 11 1005.1 - 0.0
23/12:30am 28.0 - - - - N 17 19 9 10 1005.2 - 0.0
23/12:00am 28.4 - - - - N 15 17 8 9 1005.2 1004.9 0.0
 
Date/Time
EDT
Temp
°C
App
Temp
°C
Dew
Point
Rel
Hum
%
Delta-T
°C
Wind Press
QNH
hPa
Press
MSL
hPa
Rain
since 9 am
mm
Dir
 
Spd
km/h
Gust
km/h
Spd
kts
Gust
kts
22/11:30pm 29.7 - - - - N 15 19 8 10 1005.2 - 0.0
22/11:00pm 30.5 - - - - N 15 19 8 10 1005.3 - 0.0
22/10:30pm 31.1 - - - - N 13 17 7 9 1005.4 - 0.0
22/10:00pm 31.4 - - - - N 11 13 6 7 1005.4 - 0.0
22/09:30pm 30.7 - - - - N 9 11 5 6 1005.3 - 0.0

Other Formats:

Comma delimited format used in spreadsheet applications
http://www.bom.gov.au/fwo/IDV60801/IDV60801.94843.axf

JavaScript Object Notation format (JSON) in row-major order
http://www.bom.gov.au/fwo/IDV60801/IDV60801.94843.json